sensor_id;sensor_type;location;lat;lon;timestamp;P1;durP1;ratioP1;P2;durP2;ratioP2
15673;SDS011;7937;48.090;16.212;2023-04-29T00:02:22;8.93;;;7.30;;
15673;SDS011;7937;48.090;16.212;2023-04-29T00:05:24;10.23;;;9.23;;
15673;SDS011;7937;48.090;16.212;2023-04-29T00:08:27;10.63;;;9.00;;
15673;SDS011;7937;48.090;16.212;2023-04-29T00:11:29;11.20;;;8.03;;
15673;SDS011;7937;48.090;16.212;2023-04-29T00:14:31;9.17;;;8.27;;
15673;SDS011;7937;48.090;16.212;2023-04-29T00:17:33;10.47;;;9.37;;
15673;SDS011;7937;48.090;16.212;2023-04-29T00:20:35;9.67;;;8.67;;
15673;SDS011;7937;48.090;16.212;2023-04-29T00:23:41;9.93;;;8.93;;
15673;SDS011;7937;48.090;16.212;2023-04-29T00:26:43;12.03;;;9.77;;
15673;SDS011;7937;48.090;16.212;2023-04-29T00:29:45;8.87;;;7.97;;
15673;SDS011;7937;48.090;16.212;2023-04-29T00:32:47;11.47;;;9.23;;
15673;SDS011;7937;48.090;16.212;2023-04-29T00:35:50;10.17;;;9.13;;
15673;SDS011;7937;48.090;16.212;2023-04-29T00:38:52;9.70;;;8.80;;
15673;SDS011;7937;48.090;16.212;2023-04-29T00:41:54;12.80;;;10.23;;
15673;SDS011;7937;48.090;16.212;2023-04-29T00:44:57;9.83;;;8.20;;
15673;SDS011;7937;48.090;16.212;2023-04-29T00:47:59;12.10;;;9.10;;
15673;SDS011;7937;48.090;16.212;2023-04-29T00:51:01;10.53;;;9.43;;
15673;SDS011;7937;48.090;16.212;2023-04-29T00:54:04;11.60;;;10.40;;
15673;SDS011;7937;48.090;16.212;2023-04-29T00:57:07;11.47;;;10.27;;
15673;SDS011;7937;48.090;16.212;2023-04-29T01:00:10;10.83;;;9.40;;
15673;SDS011;7937;48.090;16.212;2023-04-29T01:03:12;15.03;;;10.90;;
15673;SDS011;7937;48.090;16.212;2023-04-29T01:13:31;12.57;;;11.27;;
15673;SDS011;7937;48.090;16.212;2023-04-29T01:16:48;11.83;;;10.63;;
15673;SDS011;7937;48.090;16.212;2023-04-29T01:19:55;12.90;;;11.50;;
15673;SDS011;7937;48.090;16.212;2023-04-29T01:22:59;12.37;;;10.87;;
15673;SDS011;7937;48.090;16.212;2023-04-29T01:26:01;12.33;;;11.03;;
15673;SDS011;7937;48.090;16.212;2023-04-29T01:29:27;11.73;;;9.83;;
15673;SDS011;7937;48.090;16.212;2023-04-29T01:36:32;13.20;;;11.40;;
15673;SDS011;7937;48.090;16.212;2023-04-29T01:43:16;14.00;;;11.57;;
15673;SDS011;7937;48.090;16.212;2023-04-29T01:46:21;15.70;;;13.87;;
15673;SDS011;7937;48.090;16.212;2023-04-29T01:49:28;14.13;;;12.07;;
15673;SDS011;7937;48.090;16.212;2023-04-29T01:52:30;14.40;;;12.30;;
15673;SDS011;7937;48.090;16.212;2023-04-29T01:55:32;17.53;;;14.10;;
15673;SDS011;7937;48.090;16.212;2023-04-29T01:59:03;15.27;;;11.80;;
15673;SDS011;7937;48.090;16.212;2023-04-29T02:02:12;16.27;;;12.43;;
15673;SDS011;7937;48.090;16.212;2023-04-29T02:05:25;15.20;;;13.57;;
15673;SDS011;7937;48.090;16.212;2023-04-29T02:08:30;13.63;;;11.93;;
15673;SDS011;7937;48.090;16.212;2023-04-29T02:11:34;18.93;;;15.00;;
15673;SDS011;7937;48.090;16.212;2023-04-29T02:14:36;23.70;;;17.63;;
15673;SDS011;7937;48.090;16.212;2023-04-29T02:17:39;20.57;;;14.37;;
15673;SDS011;7937;48.090;16.212;2023-04-29T02:20:41;17.03;;;10.53;;
15673;SDS011;7937;48.090;16.212;2023-04-29T02:23:44;16.97;;;11.03;;
15673;SDS011;7937;48.090;16.212;2023-04-29T02:26:46;9.90;;;6.90;;
15673;SDS011;7937;48.090;16.212;2023-04-29T02:29:48;8.27;;;6.73;;
15673;SDS011;7937;48.090;16.212;2023-04-29T02:32:52;3.80;;;2.97;;
15673;SDS011;7937;48.090;16.212;2023-04-29T02:35:55;3.37;;;1.77;;
15673;SDS011;7937;48.090;16.212;2023-04-29T02:38:57;1.70;;;1.60;;
15673;SDS011;7937;48.090;16.212;2023-04-29T02:42:00;5.00;;;3.37;;
15673;SDS011;7937;48.090;16.212;2023-04-29T02:45:03;3.50;;;2.70;;
15673;SDS011;7937;48.090;16.212;2023-04-29T02:48:06;5.23;;;4.63;;
15673;SDS011;7937;48.090;16.212;2023-04-29T02:51:09;6.67;;;4.00;;
15673;SDS011;7937;48.090;16.212;2023-04-29T02:54:12;4.60;;;3.87;;
15673;SDS011;7937;48.090;16.212;2023-04-29T02:57:14;7.40;;;4.37;;
15673;SDS011;7937;48.090;16.212;2023-04-29T03:00:16;3.53;;;3.23;;
15673;SDS011;7937;48.090;16.212;2023-04-29T03:03:18;3.53;;;3.23;;
15673;SDS011;7937;48.090;16.212;2023-04-29T03:06:20;4.27;;;2.83;;
15673;SDS011;7937;48.090;16.212;2023-04-29T03:09:23;3.87;;;2.20;;
15673;SDS011;7937;48.090;16.212;2023-04-29T03:12:26;1.63;;;1.53;;
15673;SDS011;7937;48.090;16.212;2023-04-29T03:15:28;1.70;;;1.33;;
15673;SDS011;7937;48.090;16.212;2023-04-29T03:18:31;1.80;;;1.20;;
15673;SDS011;7937;48.090;16.212;2023-04-29T03:21:33;2.87;;;1.00;;
15673;SDS011;7937;48.090;16.212;2023-04-29T03:24:35;1.43;;;1.13;;
15673;SDS011;7937;48.090;16.212;2023-04-29T03:27:38;2.80;;;1.10;;
15673;SDS011;7937;48.090;16.212;2023-04-29T03:30:41;3.80;;;1.50;;
15673;SDS011;7937;48.090;16.212;2023-04-29T03:33:43;2.57;;;1.30;;
15673;SDS011;7937;48.090;16.212;2023-04-29T03:36:46;2.13;;;1.30;;
15673;SDS011;7937;48.090;16.212;2023-04-29T03:39:48;1.63;;;1.13;;
15673;SDS011;7937;48.090;16.212;2023-04-29T03:42:50;1.80;;;1.20;;
15673;SDS011;7937;48.090;16.212;2023-04-29T03:45:53;3.33;;;1.50;;
15673;SDS011;7937;48.090;16.212;2023-04-29T03:48:56;1.43;;;1.27;;
15673;SDS011;7937;48.090;16.212;2023-04-29T03:51:58;3.60;;;1.67;;
15673;SDS011;7937;48.090;16.212;2023-04-29T03:55:01;1.37;;;1.20;;
15673;SDS011;7937;48.090;16.212;2023-04-29T03:58:04;3.20;;;1.00;;
15673;SDS011;7937;48.090;16.212;2023-04-29T04:01:07;1.20;;;1.10;;
15673;SDS011;7937;48.090;16.212;2023-04-29T04:04:16;2.30;;;0.93;;
15673;SDS011;7937;48.090;16.212;2023-04-29T04:07:21;1.60;;;1.10;;
15673;SDS011;7937;48.090;16.212;2023-04-29T04:10:42;1.90;;;0.83;;
15673;SDS011;7937;48.090;16.212;2023-04-29T04:13:56;1.77;;;0.90;;
15673;SDS011;7937;48.090;16.212;2023-04-29T04:16:58;1.47;;;1.10;;
15673;SDS011;7937;48.090;16.212;2023-04-29T04:20:01;2.40;;;1.00;;
15673;SDS011;7937;48.090;16.212;2023-04-29T04:23:04;2.07;;;1.20;;
15673;SDS011;7937;48.090;16.212;2023-04-29T04:26:06;0.80;;;0.70;;
15673;SDS011;7937;48.090;16.212;2023-04-29T04:29:34;1.90;;;0.80;;
15673;SDS011;7937;48.090;16.212;2023-04-29T04:32:57;1.23;;;0.77;;
15673;SDS011;7937;48.090;16.212;2023-04-29T04:35:59;0.77;;;0.70;;
15673;SDS011;7937;48.090;16.212;2023-04-29T04:39:01;1.10;;;0.70;;
15673;SDS011;7937;48.090;16.212;2023-04-29T04:42:05;2.27;;;0.60;;
15673;SDS011;7937;48.090;16.212;2023-04-29T04:45:09;1.00;;;0.90;;
15673;SDS011;7937;48.090;16.212;2023-04-29T04:48:21;1.27;;;0.80;;
15673;SDS011;7937;48.090;16.212;2023-04-29T04:51:24;3.00;;;1.00;;
15673;SDS011;7937;48.090;16.212;2023-04-29T04:54:26;1.07;;;0.90;;
15673;SDS011;7937;48.090;16.212;2023-04-29T04:57:38;1.33;;;0.80;;
15673;SDS011;7937;48.090;16.212;2023-04-29T05:00:42;1.00;;;0.90;;
15673;SDS011;7937;48.090;16.212;2023-04-29T05:03:46;2.73;;;0.93;;
15673;SDS011;7937;48.090;16.212;2023-04-29T05:06:48;8.37;;;1.10;;
15673;SDS011;7937;48.090;16.212;2023-04-29T05:09:52;1.00;;;0.80;;
15673;SDS011;7937;48.090;16.212;2023-04-29T05:12:55;0.97;;;0.90;;
15673;SDS011;7937;48.090;16.212;2023-04-29T05:15:57;2.40;;;1.00;;
15673;SDS011;7937;48.090;16.212;2023-04-29T05:19:07;0.80;;;0.80;;
15673;SDS011;7937;48.090;16.212;2023-04-29T05:22:12;0.77;;;0.70;;
15673;SDS011;7937;48.090;16.212;2023-04-29T05:25:15;0.70;;;0.60;;
15673;SDS011;7937;48.090;16.212;2023-04-29T05:28:17;0.60;;;0.53;;
15673;SDS011;7937;48.090;16.212;2023-04-29T05:31:20;0.63;;;0.63;;
15673;SDS011;7937;48.090;16.212;2023-04-29T05:34:23;0.60;;;0.60;;
15673;SDS011;7937;48.090;16.212;2023-04-29T05:37:26;0.60;;;0.47;;
15673;SDS011;7937;48.090;16.212;2023-04-29T05:40:46;0.77;;;0.50;;
15673;SDS011;7937;48.090;16.212;2023-04-29T05:44:07;0.77;;;0.43;;
15673;SDS011;7937;48.090;16.212;2023-04-29T05:47:09;0.50;;;0.50;;
15673;SDS011;7937;48.090;16.212;2023-04-29T05:50:13;0.40;;;0.40;;
15673;SDS011;7937;48.090;16.212;2023-04-29T05:53:18;0.87;;;0.53;;
15673;SDS011;7937;48.090;16.212;2023-04-29T05:56:21;0.40;;;0.40;;
15673;SDS011;7937;48.090;16.212;2023-04-29T05:59:24;0.80;;;0.73;;
15673;SDS011;7937;48.090;16.212;2023-04-29T06:02:27;0.80;;;0.80;;
15673;SDS011;7937;48.090;16.212;2023-04-29T06:05:29;0.90;;;0.80;;
15673;SDS011;7937;48.090;16.212;2023-04-29T06:08:53;1.30;;;1.20;;
15673;SDS011;7937;48.090;16.212;2023-04-29T06:11:59;2.90;;;1.30;;
15673;SDS011;7937;48.090;16.212;2023-04-29T06:15:02;1.67;;;1.57;;
15673;SDS011;7937;48.090;16.212;2023-04-29T06:18:04;2.90;;;1.40;;
15673;SDS011;7937;48.090;16.212;2023-04-29T06:21:07;1.90;;;1.70;;
15673;SDS011;7937;48.090;16.212;2023-04-29T06:24:10;1.87;;;1.40;;
15673;SDS011;7937;48.090;16.212;2023-04-29T06:27:12;1.60;;;1.50;;
15673;SDS011;7937;48.090;16.212;2023-04-29T06:30:14;2.50;;;2.30;;
15673;SDS011;7937;48.090;16.212;2023-04-29T06:33:16;1.67;;;1.57;;
15673;SDS011;7937;48.090;16.212;2023-04-29T06:36:18;1.87;;;1.67;;
15673;SDS011;7937;48.090;16.212;2023-04-29T06:39:38;3.47;;;1.63;;
15673;SDS011;7937;48.090;16.212;2023-04-29T06:43:09;1.57;;;1.47;;
15673;SDS011;7937;48.090;16.212;2023-04-29T06:46:20;1.83;;;1.50;;
15673;SDS011;7937;48.090;16.212;2023-04-29T06:49:37;1.60;;;1.33;;
15673;SDS011;7937;48.090;16.212;2023-04-29T06:52:39;1.90;;;1.20;;
15673;SDS011;7937;48.090;16.212;2023-04-29T06:55:43;2.17;;;1.27;;
15673;SDS011;7937;48.090;16.212;2023-04-29T06:58:46;1.37;;;1.10;;
15673;SDS011;7937;48.090;16.212;2023-04-29T07:01:48;1.40;;;1.13;;
15673;SDS011;7937;48.090;16.212;2023-04-29T07:04:53;1.30;;;1.20;;
15673;SDS011;7937;48.090;16.212;2023-04-29T07:07:56;1.53;;;0.83;;
15673;SDS011;7937;48.090;16.212;2023-04-29T07:10:58;1.10;;;1.00;;
15673;SDS011;7937;48.090;16.212;2023-04-29T07:14:01;1.60;;;0.97;;
15673;SDS011;7937;48.090;16.212;2023-04-29T07:17:03;1.03;;;0.90;;
15673;SDS011;7937;48.090;16.212;2023-04-29T07:20:06;2.57;;;1.00;;
15673;SDS011;7937;48.090;16.212;2023-04-29T07:23:09;0.90;;;0.90;;
15673;SDS011;7937;48.090;16.212;2023-04-29T07:26:11;0.80;;;0.80;;
15673;SDS011;7937;48.090;16.212;2023-04-29T07:29:18;0.70;;;0.70;;
15673;SDS011;7937;48.090;16.212;2023-04-29T07:32:20;0.90;;;0.70;;
15673;SDS011;7937;48.090;16.212;2023-04-29T07:35:23;0.70;;;0.60;;
15673;SDS011;7937;48.090;16.212;2023-04-29T07:38:25;2.07;;;0.60;;
15673;SDS011;7937;48.090;16.212;2023-04-29T07:41:27;0.60;;;0.50;;
15673;SDS011;7937;48.090;16.212;2023-04-29T07:44:29;0.53;;;0.50;;
15673;SDS011;7937;48.090;16.212;2023-04-29T07:47:32;1.70;;;0.50;;
15673;SDS011;7937;48.090;16.212;2023-04-29T07:50:34;1.03;;;0.50;;
15673;SDS011;7937;48.090;16.212;2023-04-29T07:53:40;0.30;;;0.30;;
15673;SDS011;7937;48.090;16.212;2023-04-29T07:56:42;0.30;;;0.30;;
15673;SDS011;7937;48.090;16.212;2023-04-29T07:59:44;0.43;;;0.40;;
15673;SDS011;7937;48.090;16.212;2023-04-29T08:02:53;0.40;;;0.40;;
15673;SDS011;7937;48.090;16.212;2023-04-29T08:06:00;0.47;;;0.40;;
15673;SDS011;7937;48.090;16.212;2023-04-29T08:09:05;0.40;;;0.40;;
15673;SDS011;7937;48.090;16.212;2023-04-29T08:12:08;0.60;;;0.40;;
15673;SDS011;7937;48.090;16.212;2023-04-29T08:15:13;0.97;;;0.43;;
15673;SDS011;7937;48.090;16.212;2023-04-29T08:18:16;0.43;;;0.43;;
15673;SDS011;7937;48.090;16.212;2023-04-29T08:21:18;0.60;;;0.60;;
15673;SDS011;7937;48.090;16.212;2023-04-29T08:24:21;0.40;;;0.40;;
15673;SDS011;7937;48.090;16.212;2023-04-29T08:27:23;0.50;;;0.50;;
15673;SDS011;7937;48.090;16.212;2023-04-29T08:30:25;3.60;;;2.80;;
15673;SDS011;7937;48.090;16.212;2023-04-29T08:33:27;4.37;;;3.90;;
15673;SDS011;7937;48.090;16.212;2023-04-29T08:36:29;3.83;;;3.53;;
15673;SDS011;7937;48.090;16.212;2023-04-29T08:39:31;5.63;;;3.63;;
15673;SDS011;7937;48.090;16.212;2023-04-29T08:42:34;5.87;;;3.40;;
15673;SDS011;7937;48.090;16.212;2023-04-29T08:45:38;5.50;;;3.97;;
15673;SDS011;7937;48.090;16.212;2023-04-29T08:48:44;10.87;;;5.03;;
15673;SDS011;7937;48.090;16.212;2023-04-29T08:51:47;8.70;;;5.90;;
15673;SDS011;7937;48.090;16.212;2023-04-29T08:54:52;12.10;;;6.77;;
15673;SDS011;7937;48.090;16.212;2023-04-29T08:57:55;12.83;;;6.80;;
15673;SDS011;7937;48.090;16.212;2023-04-29T09:00:58;8.17;;;5.33;;
15673;SDS011;7937;48.090;16.212;2023-04-29T09:07:09;6.60;;;3.40;;
15673;SDS011;7937;48.090;16.212;2023-04-29T09:10:11;3.10;;;1.47;;
15673;SDS011;7937;48.090;16.212;2023-04-29T09:13:25;1.60;;;0.80;;
15673;SDS011;7937;48.090;16.212;2023-04-29T09:16:28;3.50;;;1.00;;
15673;SDS011;7937;48.090;16.212;2023-04-29T09:19:32;1.87;;;1.00;;
15673;SDS011;7937;48.090;16.212;2023-04-29T09:22:46;2.93;;;1.00;;
15673;SDS011;7937;48.090;16.212;2023-04-29T09:25:55;0.77;;;0.50;;
15673;SDS011;7937;48.090;16.212;2023-04-29T09:29:08;1.10;;;0.50;;
15673;SDS011;7937;48.090;16.212;2023-04-29T09:32:19;3.43;;;0.57;;
15673;SDS011;7937;48.090;16.212;2023-04-29T09:35:25;1.33;;;0.50;;
15673;SDS011;7937;48.090;16.212;2023-04-29T09:38:28;1.80;;;0.50;;
15673;SDS011;7937;48.090;16.212;2023-04-29T09:41:30;0.53;;;0.50;;
15673;SDS011;7937;48.090;16.212;2023-04-29T09:44:33;0.90;;;0.50;;
15673;SDS011;7937;48.090;16.212;2023-04-29T09:47:38;0.73;;;0.50;;
15673;SDS011;7937;48.090;16.212;2023-04-29T09:50:41;0.50;;;0.47;;
15673;SDS011;7937;48.090;16.212;2023-04-29T09:53:44;1.67;;;0.50;;
15673;SDS011;7937;48.090;16.212;2023-04-29T09:56:47;1.73;;;0.80;;
15673;SDS011;7937;48.090;16.212;2023-04-29T09:59:53;3.17;;;0.63;;
15673;SDS011;7937;48.090;16.212;2023-04-29T10:02:56;0.60;;;0.60;;
15673;SDS011;7937;48.090;16.212;2023-04-29T10:06:01;1.77;;;0.80;;
15673;SDS011;7937;48.090;16.212;2023-04-29T10:09:04;0.57;;;0.53;;
15673;SDS011;7937;48.090;16.212;2023-04-29T10:12:09;0.80;;;0.70;;
15673;SDS011;7937;48.090;16.212;2023-04-29T10:15:19;0.57;;;0.50;;
15673;SDS011;7937;48.090;16.212;2023-04-29T10:18:35;1.13;;;0.87;;
15673;SDS011;7937;48.090;16.212;2023-04-29T10:21:38;1.83;;;0.80;;
15673;SDS011;7937;48.090;16.212;2023-04-29T10:24:40;0.93;;;0.83;;
15673;SDS011;7937;48.090;16.212;2023-04-29T10:27:45;1.20;;;1.10;;
15673;SDS011;7937;48.090;16.212;2023-04-29T10:30:51;1.70;;;0.90;;
15673;SDS011;7937;48.090;16.212;2023-04-29T10:33:55;1.00;;;0.80;;
15673;SDS011;7937;48.090;16.212;2023-04-29T10:36:58;1.40;;;1.00;;
15673;SDS011;7937;48.090;16.212;2023-04-29T10:43:22;1.13;;;1.00;;
15673;SDS011;7937;48.090;16.212;2023-04-29T10:46:25;1.37;;;1.00;;
15673;SDS011;7937;48.090;16.212;2023-04-29T10:49:32;2.00;;;0.83;;
15673;SDS011;7937;48.090;16.212;2023-04-29T10:52:50;3.67;;;1.20;;
15673;SDS011;7937;48.090;16.212;2023-04-29T10:55:53;1.30;;;1.00;;
15673;SDS011;7937;48.090;16.212;2023-04-29T10:58:58;0.90;;;0.80;;
15673;SDS011;7937;48.090;16.212;2023-04-29T11:02:00;2.20;;;1.00;;
15673;SDS011;7937;48.090;16.212;2023-04-29T11:05:06;1.40;;;1.30;;
15673;SDS011;7937;48.090;16.212;2023-04-29T11:08:10;1.37;;;1.13;;
15673;SDS011;7937;48.090;16.212;2023-04-29T11:11:25;1.70;;;1.10;;
15673;SDS011;7937;48.090;16.212;2023-04-29T11:14:33;1.43;;;1.23;;
15673;SDS011;7937;48.090;16.212;2023-04-29T11:17:38;1.30;;;1.20;;
15673;SDS011;7937;48.090;16.212;2023-04-29T11:24:08;2.47;;;1.30;;
15673;SDS011;7937;48.090;16.212;2023-04-29T11:27:13;1.27;;;1.13;;
15673;SDS011;7937;48.090;16.212;2023-04-29T11:30:16;1.30;;;1.20;;
15673;SDS011;7937;48.090;16.212;2023-04-29T11:33:20;1.20;;;0.83;;
15673;SDS011;7937;48.090;16.212;2023-04-29T11:36:23;2.30;;;1.30;;
15673;SDS011;7937;48.090;16.212;2023-04-29T11:39:25;9.20;;;1.43;;
15673;SDS011;7937;48.090;16.212;2023-04-29T11:42:28;1.30;;;1.03;;
15673;SDS011;7937;48.090;16.212;2023-04-29T11:45:33;1.30;;;1.00;;
15673;SDS011;7937;48.090;16.212;2023-04-29T11:48:36;1.20;;;1.00;;
15673;SDS011;7937;48.090;16.212;2023-04-29T11:51:38;1.97;;;1.23;;
15673;SDS011;7937;48.090;16.212;2023-04-29T11:54:41;4.60;;;1.60;;
15673;SDS011;7937;48.090;16.212;2023-04-29T11:57:43;1.43;;;1.33;;
15673;SDS011;7937;48.090;16.212;2023-04-29T12:00:46;1.60;;;1.30;;
15673;SDS011;7937;48.090;16.212;2023-04-29T12:03:48;2.33;;;1.50;;
15673;SDS011;7937;48.090;16.212;2023-04-29T12:06:51;2.20;;;1.10;;
15673;SDS011;7937;48.090;16.212;2023-04-29T12:09:54;0.97;;;0.90;;
15673;SDS011;7937;48.090;16.212;2023-04-29T12:12:57;1.87;;;1.13;;
15673;SDS011;7937;48.090;16.212;2023-04-29T12:16:00;1.23;;;1.10;;
15673;SDS011;7937;48.090;16.212;2023-04-29T12:19:04;1.87;;;1.13;;
15673;SDS011;7937;48.090;16.212;2023-04-29T12:22:06;5.13;;;1.10;;
15673;SDS011;7937;48.090;16.212;2023-04-29T12:25:09;1.53;;;1.13;;
15673;SDS011;7937;48.090;16.212;2023-04-29T12:28:11;1.63;;;1.10;;
15673;SDS011;7937;48.090;16.212;2023-04-29T12:31:14;2.73;;;1.07;;
15673;SDS011;7937;48.090;16.212;2023-04-29T12:34:23;2.90;;;1.17;;
15673;SDS011;7937;48.090;16.212;2023-04-29T12:37:34;2.03;;;1.07;;
15673;SDS011;7937;48.090;16.212;2023-04-29T12:40:36;2.87;;;1.20;;
15673;SDS011;7937;48.090;16.212;2023-04-29T12:43:40;3.57;;;1.50;;
15673;SDS011;7937;48.090;16.212;2023-04-29T12:46:42;1.20;;;1.10;;
15673;SDS011;7937;48.090;16.212;2023-04-29T12:49:45;3.67;;;1.30;;
15673;SDS011;7937;48.090;16.212;2023-04-29T12:52:48;3.73;;;1.40;;
15673;SDS011;7937;48.090;16.212;2023-04-29T12:55:50;4.50;;;1.20;;
15673;SDS011;7937;48.090;16.212;2023-04-29T12:58:53;1.73;;;1.53;;
15673;SDS011;7937;48.090;16.212;2023-04-29T13:01:55;2.03;;;1.60;;
15673;SDS011;7937;48.090;16.212;2023-04-29T13:04:57;3.47;;;1.50;;
15673;SDS011;7937;48.090;16.212;2023-04-29T13:08:00;4.60;;;1.80;;
15673;SDS011;7937;48.090;16.212;2023-04-29T13:11:02;4.73;;;1.83;;
15673;SDS011;7937;48.090;16.212;2023-04-29T13:14:05;2.70;;;2.50;;
15673;SDS011;7937;48.090;16.212;2023-04-29T13:17:07;4.97;;;2.00;;
15673;SDS011;7937;48.090;16.212;2023-04-29T13:20:11;4.53;;;2.10;;
15673;SDS011;7937;48.090;16.212;2023-04-29T13:23:14;2.10;;;1.90;;
15673;SDS011;7937;48.090;16.212;2023-04-29T13:26:17;2.90;;;1.87;;
15673;SDS011;7937;48.090;16.212;2023-04-29T13:29:19;1.87;;;1.77;;
15673;SDS011;7937;48.090;16.212;2023-04-29T13:32:21;2.00;;;1.80;;
15673;SDS011;7937;48.090;16.212;2023-04-29T13:35:25;2.50;;;1.67;;
15673;SDS011;7937;48.090;16.212;2023-04-29T13:38:27;3.30;;;1.50;;
15673;SDS011;7937;48.090;16.212;2023-04-29T13:41:29;1.50;;;1.40;;
15673;SDS011;7937;48.090;16.212;2023-04-29T13:44:36;1.47;;;1.37;;
15673;SDS011;7937;48.090;16.212;2023-04-29T13:47:53;1.60;;;1.27;;
15673;SDS011;7937;48.090;16.212;2023-04-29T13:51:12;2.07;;;1.37;;
15673;SDS011;7937;48.090;16.212;2023-04-29T13:54:34;2.10;;;1.80;;
15673;SDS011;7937;48.090;16.212;2023-04-29T13:57:57;2.20;;;2.00;;
15673;SDS011;7937;48.090;16.212;2023-04-29T14:01:20;1.80;;;1.40;;
15673;SDS011;7937;48.090;16.212;2023-04-29T14:04:26;2.67;;;1.80;;
15673;SDS011;7937;48.090;16.212;2023-04-29T14:07:29;3.13;;;2.20;;
15673;SDS011;7937;48.090;16.212;2023-04-29T14:10:31;2.10;;;1.60;;
15673;SDS011;7937;48.090;16.212;2023-04-29T14:13:33;2.33;;;1.77;;
15673;SDS011;7937;48.090;16.212;2023-04-29T14:16:35;3.60;;;1.47;;
15673;SDS011;7937;48.090;16.212;2023-04-29T14:19:38;2.07;;;1.73;;
15673;SDS011;7937;48.090;16.212;2023-04-29T14:22:41;2.27;;;1.60;;
15673;SDS011;7937;48.090;16.212;2023-04-29T14:25:43;1.50;;;1.37;;
15673;SDS011;7937;48.090;16.212;2023-04-29T14:28:45;1.80;;;1.50;;
15673;SDS011;7937;48.090;16.212;2023-04-29T14:31:47;1.50;;;1.40;;
15673;SDS011;7937;48.090;16.212;2023-04-29T14:34:49;1.60;;;1.43;;
15673;SDS011;7937;48.090;16.212;2023-04-29T14:37:52;2.23;;;1.50;;
15673;SDS011;7937;48.090;16.212;2023-04-29T14:40:54;3.60;;;1.57;;
15673;SDS011;7937;48.090;16.212;2023-04-29T14:43:57;2.70;;;2.17;;
15673;SDS011;7937;48.090;16.212;2023-04-29T14:46:59;3.03;;;1.70;;
15673;SDS011;7937;48.090;16.212;2023-04-29T14:50:01;2.43;;;1.80;;
15673;SDS011;7937;48.090;16.212;2023-04-29T14:53:04;2.37;;;1.60;;
15673;SDS011;7937;48.090;16.212;2023-04-29T14:56:07;2.63;;;1.80;;
15673;SDS011;7937;48.090;16.212;2023-04-29T14:59:10;2.30;;;1.60;;
15673;SDS011;7937;48.090;16.212;2023-04-29T15:02:12;2.27;;;1.13;;
15673;SDS011;7937;48.090;16.212;2023-04-29T15:05:14;3.23;;;1.30;;
15673;SDS011;7937;48.090;16.212;2023-04-29T15:08:17;1.40;;;1.30;;
15673;SDS011;7937;48.090;16.212;2023-04-29T15:11:19;3.10;;;1.50;;
15673;SDS011;7937;48.090;16.212;2023-04-29T15:14:22;1.50;;;1.40;;
15673;SDS011;7937;48.090;16.212;2023-04-29T15:17:24;3.27;;;1.20;;
15673;SDS011;7937;48.090;16.212;2023-04-29T15:20:26;3.23;;;1.00;;
15673;SDS011;7937;48.090;16.212;2023-04-29T15:23:28;5.37;;;1.30;;
15673;SDS011;7937;48.090;16.212;2023-04-29T15:26:31;1.50;;;1.40;;
15673;SDS011;7937;48.090;16.212;2023-04-29T15:29:34;3.63;;;1.23;;
15673;SDS011;7937;48.090;16.212;2023-04-29T15:32:38;3.33;;;1.30;;
15673;SDS011;7937;48.090;16.212;2023-04-29T15:35:40;3.17;;;1.27;;
15673;SDS011;7937;48.090;16.212;2023-04-29T15:38:42;2.43;;;1.00;;
15673;SDS011;7937;48.090;16.212;2023-04-29T15:41:44;2.77;;;0.97;;
15673;SDS011;7937;48.090;16.212;2023-04-29T15:44:46;1.20;;;1.00;;
15673;SDS011;7937;48.090;16.212;2023-04-29T15:47:48;1.10;;;1.00;;
15673;SDS011;7937;48.090;16.212;2023-04-29T15:50:50;4.03;;;1.20;;
15673;SDS011;7937;48.090;16.212;2023-04-29T15:53:54;1.13;;;1.03;;
15673;SDS011;7937;48.090;16.212;2023-04-29T15:56:56;1.90;;;1.07;;
15673;SDS011;7937;48.090;16.212;2023-04-29T15:59:58;0.80;;;0.70;;
15673;SDS011;7937;48.090;16.212;2023-04-29T16:03:00;2.00;;;0.73;;
15673;SDS011;7937;48.090;16.212;2023-04-29T16:06:03;2.30;;;1.00;;
15673;SDS011;7937;48.090;16.212;2023-04-29T16:09:05;1.30;;;0.50;;
15673;SDS011;7937;48.090;16.212;2023-04-29T16:12:07;2.93;;;0.90;;
15673;SDS011;7937;48.090;16.212;2023-04-29T16:15:12;1.73;;;0.63;;
15673;SDS011;7937;48.090;16.212;2023-04-29T16:18:14;0.60;;;0.60;;
15673;SDS011;7937;48.090;16.212;2023-04-29T16:21:17;1.37;;;0.63;;
15673;SDS011;7937;48.090;16.212;2023-04-29T16:24:20;2.17;;;0.70;;
15673;SDS011;7937;48.090;16.212;2023-04-29T16:27:22;1.20;;;0.60;;
15673;SDS011;7937;48.090;16.212;2023-04-29T16:30:24;2.07;;;0.77;;
15673;SDS011;7937;48.090;16.212;2023-04-29T16:33:26;3.53;;;0.70;;
15673;SDS011;7937;48.090;16.212;2023-04-29T16:36:30;0.80;;;0.80;;
15673;SDS011;7937;48.090;16.212;2023-04-29T16:39:33;0.70;;;0.60;;
15673;SDS011;7937;48.090;16.212;2023-04-29T16:42:35;2.23;;;0.70;;
15673;SDS011;7937;48.090;16.212;2023-04-29T16:45:37;1.37;;;0.70;;
15673;SDS011;7937;48.090;16.212;2023-04-29T16:48:39;3.03;;;0.80;;
15673;SDS011;7937;48.090;16.212;2023-04-29T16:51:41;0.60;;;0.60;;
15673;SDS011;7937;48.090;16.212;2023-04-29T16:54:44;2.67;;;0.73;;
15673;SDS011;7937;48.090;16.212;2023-04-29T16:57:46;0.50;;;0.50;;
15673;SDS011;7937;48.090;16.212;2023-04-29T17:00:48;0.83;;;0.40;;
15673;SDS011;7937;48.090;16.212;2023-04-29T17:03:50;0.70;;;0.70;;
15673;SDS011;7937;48.090;16.212;2023-04-29T17:06:53;1.40;;;0.80;;
15673;SDS011;7937;48.090;16.212;2023-04-29T17:09:55;1.77;;;0.80;;
15673;SDS011;7937;48.090;16.212;2023-04-29T17:12:57;1.57;;;0.60;;
15673;SDS011;7937;48.090;16.212;2023-04-29T17:15:59;2.33;;;0.80;;
15673;SDS011;7937;48.090;16.212;2023-04-29T17:19:01;1.30;;;0.80;;
15673;SDS011;7937;48.090;16.212;2023-04-29T17:22:03;1.83;;;0.60;;
15673;SDS011;7937;48.090;16.212;2023-04-29T17:25:06;1.43;;;0.60;;
15673;SDS011;7937;48.090;16.212;2023-04-29T17:28:09;1.00;;;0.83;;
15673;SDS011;7937;48.090;16.212;2023-04-29T17:31:13;1.10;;;0.83;;
15673;SDS011;7937;48.090;16.212;2023-04-29T17:34:16;1.30;;;0.77;;
15673;SDS011;7937;48.090;16.212;2023-04-29T17:37:26;1.27;;;0.80;;
15673;SDS011;7937;48.090;16.212;2023-04-29T17:40:31;1.53;;;0.60;;
15673;SDS011;7937;48.090;16.212;2023-04-29T17:43:33;0.90;;;0.83;;
15673;SDS011;7937;48.090;16.212;2023-04-29T17:46:37;2.10;;;0.70;;
15673;SDS011;7937;48.090;16.212;2023-04-29T17:49:39;3.27;;;0.63;;
15673;SDS011;7937;48.090;16.212;2023-04-29T17:52:45;2.63;;;0.70;;
15673;SDS011;7937;48.090;16.212;2023-04-29T17:55:48;1.70;;;0.80;;
15673;SDS011;7937;48.090;16.212;2023-04-29T17:58:50;0.87;;;0.70;;
15673;SDS011;7937;48.090;16.212;2023-04-29T18:01:53;1.07;;;0.60;;
15673;SDS011;7937;48.090;16.212;2023-04-29T18:04:55;1.03;;;0.70;;
15673;SDS011;7937;48.090;16.212;2023-04-29T18:08:02;1.57;;;0.77;;
15673;SDS011;7937;48.090;16.212;2023-04-29T18:11:05;3.47;;;0.90;;
15673;SDS011;7937;48.090;16.212;2023-04-29T18:14:09;1.70;;;0.90;;
15673;SDS011;7937;48.090;16.212;2023-04-29T18:17:13;5.63;;;1.17;;
15673;SDS011;7937;48.090;16.212;2023-04-29T18:20:16;2.67;;;0.70;;
15673;SDS011;7937;48.090;16.212;2023-04-29T18:23:18;1.60;;;0.80;;
15673;SDS011;7937;48.090;16.212;2023-04-29T18:26:21;1.10;;;0.83;;
15673;SDS011;7937;48.090;16.212;2023-04-29T18:29:24;1.93;;;0.80;;
15673;SDS011;7937;48.090;16.212;2023-04-29T18:32:26;1.47;;;0.73;;
15673;SDS011;7937;48.090;16.212;2023-04-29T18:35:28;1.40;;;0.90;;
15673;SDS011;7937;48.090;16.212;2023-04-29T18:38:30;0.90;;;0.83;;
15673;SDS011;7937;48.090;16.212;2023-04-29T18:41:33;1.27;;;0.70;;
15673;SDS011;7937;48.090;16.212;2023-04-29T18:44:35;0.90;;;0.80;;
15673;SDS011;7937;48.090;16.212;2023-04-29T18:47:37;2.13;;;0.60;;
15673;SDS011;7937;48.090;16.212;2023-04-29T18:50:40;0.97;;;0.90;;
15673;SDS011;7937;48.090;16.212;2023-04-29T18:53:42;2.27;;;0.90;;